Time;durP1;ratioP1;P1;durP2;ratioP2;P2;SDS_P1;SDS_P2;PMS_P1;PMS_P2;Temp;Humidity;BMP_temperature;BMP_pressure;BME280_temperature;BME280_humidity;BME280_pressure;Samples;Min_cycle;Max_cycle;Signal;HPM_P1;HPM_P2
2023/08/12 00:00:33;;;;;;;23.20;20.23;;;21.10;99.90;;;;;;5104331;28;20203;-72
2023/08/12 00:02:59;;;;;;;20.63;18.70;;;21.10;99.90;;;;;;5103764;28;20197;-72
2023/08/12 00:05:25;;;;;;;19.83;18.03;;;21.10;99.90;;;;;;5103165;28;20488;-72
2023/08/12 00:07:50;;;;;;;20.23;18.20;;;21.10;99.90;;;;;;5085290;28;20437;-72
2023/08/12 00:10:16;;;;;;;22.30;20.10;;;21.10;99.90;;;;;;5103890;28;20637;-72
2023/08/12 00:12:42;;;;;;;21.33;19.23;;;21.10;99.90;;;;;;5103892;28;20178;-72
2023/08/12 00:15:10;;;;;;;20.20;18.20;;;21.00;99.90;;;;;;5084431;28;20244;-72
2023/08/12 00:17:37;;;;;;;22.20;20.00;;;21.00;99.90;;;;;;5104099;28;20453;-72
2023/08/12 00:20:08;;;;;;;20.03;18.07;;;20.90;99.90;;;;;;5084780;28;21115;-72
2023/08/12 00:22:34;;;;;;;19.37;17.47;;;20.90;99.90;;;;;;5104047;28;20490;-74
2023/08/12 00:25:00;;;;;;;21.20;18.90;;;20.90;99.90;;;;;;5101511;28;20465;-72
2023/08/12 00:27:26;;;;;;;19.60;17.60;;;20.90;99.90;;;;;;5084207;28;20924;-72
2023/08/12 00:29:52;;;;;;;16.20;14.70;;;20.90;99.90;;;;;;5098951;28;20502;-73
2023/08/12 00:32:18;;;;;;;17.50;15.80;;;20.80;99.90;;;;;;5104118;28;20316;-72
2023/08/12 00:34:43;;;;;;;17.70;15.97;;;20.90;99.90;;;;;;5103418;28;20172;-73
2023/08/12 00:37:09;;;;;;;15.70;14.20;;;20.90;99.90;;;;;;5103288;28;20433;-72
2023/08/12 00:39:35;;;;;;;15.43;13.93;;;20.80;99.90;;;;;;5104511;28;20237;-74
2023/08/12 00:42:01;;;;;;;17.30;15.60;;;20.90;99.90;;;;;;5103104;28;20172;-73
2023/08/12 00:44:27;;;;;;;16.10;14.47;;;20.90;99.90;;;;;;5103513;28;20821;-72
2023/08/12 00:46:52;;;;;;;17.17;15.37;;;20.90;99.90;;;;;;5103094;28;20179;-73
2023/08/12 00:49:18;;;;;;;18.73;16.90;;;20.90;99.90;;;;;;5102378;28;20184;-73
2023/08/12 00:51:45;;;;;;;18.20;16.30;;;20.90;99.90;;;;;;5103621;28;20179;-72
2023/08/12 00:54:14;;;;;;;20.10;17.93;;;20.80;99.90;;;;;;5102774;28;20176;-72
2023/08/12 00:56:41;;;;;;;16.20;14.57;;;20.90;99.90;;;;;;5103421;28;20426;-72
2023/08/12 00:59:09;;;;;;;18.23;16.43;;;20.80;99.90;;;;;;5102889;28;20449;-72
2023/08/12 01:01:35;;;;;;;18.20;16.03;;;20.80;99.90;;;;;;5103573;28;20434;-72
2023/08/12 01:04:01;;;;;;;17.80;16.10;;;20.80;99.90;;;;;;5103195;28;20940;-72
2023/08/12 01:06:27;;;;;;;16.27;14.73;;;20.80;99.90;;;;;;5102820;28;20469;-73
2023/08/12 01:08:53;;;;;;;17.27;14.47;;;20.80;99.90;;;;;;5103795;28;20418;-73
2023/08/12 01:11:33;;;;;;;18.90;17.00;;;20.90;99.90;;;;;;5103417;28;20182;-72
2023/08/12 01:14:30;;;;;;;16.87;15.27;;;20.80;99.90;;;;;;5102564;28;20511;-72
2023/08/12 01:17:04;;;;;;;17.20;15.40;;;20.80;99.90;;;;;;5103365;28;21017;-72
2023/08/12 01:19:34;;;;;;;17.60;14.90;;;20.80;99.90;;;;;;5104465;28;20410;-72
2023/08/12 01:22:02;;;;;;;18.43;16.40;;;20.80;99.90;;;;;;5104258;28;20431;-72
2023/08/12 01:24:35;;;;;;;16.57;14.97;;;20.80;99.90;;;;;;5106203;28;20480;-72
2023/08/12 01:27:01;;;;;;;17.13;15.30;;;20.80;99.90;;;;;;5105967;28;20421;-73
2023/08/12 01:29:27;;;;;;;20.53;16.87;;;20.90;99.90;;;;;;5101711;28;20453;-72
2023/08/12 01:32:01;;;;;;;18.97;17.00;;;20.90;99.90;;;;;;5104561;28;20180;-72
2023/08/12 01:34:41;;;;;;;22.13;17.63;;;21.00;99.90;;;;;;5105216;28;20417;-73
2023/08/12 01:37:10;;;;;;;17.77;15.90;;;20.90;99.90;;;;;;5102548;28;20519;-73
2023/08/12 01:39:39;;;;;;;18.20;16.30;;;20.90;99.90;;;;;;5102926;28;20441;-72
2023/08/12 01:42:05;;;;;;;20.13;18.13;;;20.90;99.90;;;;;;5102520;28;20855;-72
2023/08/12 01:44:31;;;;;;;18.30;16.40;;;20.80;99.90;;;;;;5102165;28;20454;-73
2023/08/12 01:46:57;;;;;;;20.83;18.53;;;20.70;99.90;;;;;;5102675;28;20425;-72
2023/08/12 01:49:24;;;;;;;21.93;19.73;;;20.80;99.90;;;;;;5102016;28;20176;-72
2023/08/12 01:51:49;;;;;;;20.07;18.07;;;20.70;99.90;;;;;;5102720;28;20264;-72
2023/08/12 01:54:15;;;;;;;22.23;19.93;;;20.80;99.90;;;;;;5101426;28;20923;-72
2023/08/12 01:56:41;;;;;;;20.37;18.33;;;20.70;99.90;;;;;;5101697;28;20180;-73
2023/08/12 01:59:07;;;;;;;20.67;18.47;;;20.60;99.90;;;;;;5101879;28;20172;-72
2023/08/12 02:01:32;;;;;;;22.57;20.07;;;20.70;99.90;;;;;;5102186;28;20203;-72
2023/08/12 02:03:58;;;;;;;21.77;19.67;;;20.60;99.90;;;;;;5101840;28;20171;-72
2023/08/12 02:06:24;;;;;;;20.20;18.13;;;20.60;99.90;;;;;;5101234;28;20241;-73
2023/08/12 02:08:50;;;;;;;22.13;19.30;;;20.60;99.90;;;;;;5100934;28;20526;-72
2023/08/12 02:11:16;;;;;;;20.60;18.40;;;20.60;99.90;;;;;;5101487;28;20736;-72
2023/08/12 02:13:42;;;;;;;20.53;18.33;;;20.70;99.90;;;;;;5101418;28;20428;-72
2023/08/12 02:16:08;;;;;;;22.33;19.97;;;20.60;99.90;;;;;;5101418;28;20261;-72
2023/08/12 02:18:34;;;;;;;22.20;19.67;;;20.70;99.90;;;;;;5101649;28;20256;-72
2023/08/12 02:20:59;;;;;;;23.40;21.03;;;20.60;99.90;;;;;;5102161;28;20530;-72
2023/08/12 02:23:25;;;;;;;22.37;20.17;;;20.60;99.90;;;;;;5101835;28;20427;-73
2023/08/12 02:25:52;;;;;;;20.80;18.33;;;20.70;99.90;;;;;;5100943;28;20262;-72
2023/08/12 02:28:18;;;;;;;22.43;20.10;;;20.70;99.90;;;;;;5101469;28;20563;-72
2023/08/12 02:30:44;;;;;;;24.23;21.63;;;20.60;99.90;;;;;;5101880;28;20414;-72
2023/08/12 02:33:09;;;;;;;23.30;19.77;;;20.60;99.90;;;;;;5101434;28;20716;-73
2023/08/12 02:35:35;;;;;;;22.87;20.40;;;20.50;99.90;;;;;;5100708;28;20205;-73
2023/08/12 02:38:00;;;;;;;21.13;18.93;;;20.60;99.90;;;;;;5101712;28;20179;-73
2023/08/12 02:40:26;;;;;;;21.07;18.50;;;20.50;99.90;;;;;;5101129;28;20738;-72
2023/08/12 02:42:52;;;;;;;21.10;18.97;;;20.50;99.90;;;;;;5083885;28;20280;-73
2023/08/12 02:45:17;;;;;;;20.33;18.23;;;20.50;99.90;;;;;;5100091;28;20306;-72
2023/08/12 02:47:43;;;;;;;20.20;18.20;;;20.50;99.90;;;;;;5102068;28;20176;-73
2023/08/12 02:50:09;;;;;;;18.90;17.10;;;20.50;99.90;;;;;;5083182;28;20269;-72
2023/08/12 02:52:35;;;;;;;21.60;19.33;;;20.50;99.90;;;;;;5101052;28;20255;-73
2023/08/12 02:55:00;;;;;;;21.70;18.67;;;20.50;99.90;;;;;;5100787;28;20176;-72
2023/08/12 02:57:26;;;;;;;22.30;19.03;;;20.50;99.90;;;;;;5100791;28;20431;-72
2023/08/12 02:59:52;;;;;;;20.47;18.37;;;20.50;99.90;;;;;;5101401;28;20283;-72
2023/08/12 03:02:18;;;;;;;20.80;18.70;;;20.50;99.90;;;;;;5100967;28;20240;-72
2023/08/12 03:04:43;;;;;;;20.63;18.43;;;20.50;99.90;;;;;;5100778;28;20203;-72
2023/08/12 03:07:09;;;;;;;20.17;17.50;;;20.40;99.90;;;;;;5101402;28;20659;-72
2023/08/12 03:09:35;;;;;;;17.63;15.90;;;20.40;99.90;;;;;;5101384;28;20183;-72
2023/08/12 03:12:02;;;;;;;18.23;16.37;;;20.40;99.90;;;;;;5101279;28;20183;-72
2023/08/12 03:14:29;;;;;;;20.80;17.37;;;20.50;99.90;;;;;;5100772;28;20233;-72
2023/08/12 03:16:55;;;;;;;20.07;17.73;;;20.50;99.90;;;;;;5102276;28;20470;-72
2023/08/12 03:19:21;;;;;;;18.50;16.60;;;20.50;99.90;;;;;;5099256;28;20452;-72
2023/08/12 03:21:46;;;;;;;19.40;17.40;;;20.50;99.90;;;;;;5101073;28;20172;-72
2023/08/12 03:24:12;;;;;;;19.63;17.60;;;20.40;99.90;;;;;;5100641;28;20224;-72
2023/08/12 03:26:38;;;;;;;18.63;16.13;;;20.40;99.90;;;;;;5100121;28;20907;-72
2023/08/12 03:29:04;;;;;;;18.27;16.33;;;20.40;99.90;;;;;;5101495;28;20182;-72
2023/08/12 03:31:29;;;;;;;17.90;16.00;;;20.50;99.90;;;;;;5095161;28;20564;-73
2023/08/12 03:33:55;;;;;;;19.90;17.80;;;20.50;99.90;;;;;;5094498;28;20180;-73
2023/08/12 03:36:20;;;;;;;20.10;17.53;;;20.50;99.90;;;;;;5104315;28;20199;-72
2023/08/12 03:38:46;;;;;;;19.47;17.47;;;20.60;99.90;;;;;;5104805;28;20207;-71
2023/08/12 03:41:12;;;;;;;18.93;16.93;;;20.60;99.90;;;;;;5104900;28;20187;-72
2023/08/12 03:43:38;;;;;;;19.00;17.00;;;20.50;99.90;;;;;;5103697;28;20172;-72
2023/08/12 03:46:03;;;;;;;18.40;16.60;;;20.50;99.90;;;;;;5104706;28;20461;-72
2023/08/12 03:48:29;;;;;;;18.80;17.00;;;20.40;99.90;;;;;;5104366;28;20271;-72
2023/08/12 03:50:55;;;;;;;17.50;15.73;;;20.40;99.90;;;;;;5104664;28;20207;-73
2023/08/12 03:53:20;;;;;;;19.13;17.27;;;20.40;99.90;;;;;;5104809;28;20242;-73
2023/08/12 03:55:46;;;;;;;18.13;16.30;;;20.40;99.90;;;;;;5102780;28;20179;-73
2023/08/12 03:58:12;;;;;;;18.27;16.47;;;20.40;99.90;;;;;;5104941;28;20179;-72
2023/08/12 04:00:43;;;;;;;19.57;17.67;;;20.30;99.90;;;;;;5103180;28;20718;-72
2023/08/12 04:03:09;;;;;;;18.50;16.57;;;20.30;99.90;;;;;;5104329;28;20180;-72
2023/08/12 04:05:35;;;;;;;17.70;15.90;;;20.40;99.90;;;;;;5103108;28;20499;-72
2023/08/12 04:08:00;;;;;;;17.77;15.87;;;20.30;99.90;;;;;;5104736;28;20191;-72
2023/08/12 04:10:26;;;;;;;18.37;16.20;;;20.30;99.90;;;;;;5104423;28;20179;-72
2023/08/12 04:12:52;;;;;;;18.47;16.67;;;20.30;99.90;;;;;;5103898;28;20253;-72
2023/08/12 04:15:17;;;;;;;18.13;16.40;;;20.30;99.90;;;;;;5103507;28;20176;-73
2023/08/12 04:17:43;;;;;;;19.10;17.20;;;20.30;99.90;;;;;;5103727;28;20203;-72
2023/08/12 04:20:09;;;;;;;18.00;16.10;;;20.30;99.90;;;;;;5101478;28;20222;-72
2023/08/12 04:22:35;;;;;;;18.63;15.43;;;20.40;99.90;;;;;;5103090;28;20520;-72
2023/08/12 04:25:02;;;;;;;15.33;13.83;;;20.40;99.90;;;;;;5102905;28;20211;-72
2023/08/12 04:27:27;;;;;;;17.63;15.93;;;20.40;99.90;;;;;;5104482;28;20205;-72
2023/08/12 04:29:53;;;;;;;15.47;13.97;;;20.40;99.90;;;;;;5087381;28;20419;-74
2023/08/12 04:32:19;;;;;;;17.03;15.23;;;20.30;99.90;;;;;;5099519;28;20247;-72
2023/08/12 04:34:45;;;;;;;17.60;15.90;;;20.30;99.90;;;;;;5102551;28;20199;-73
2023/08/12 04:37:11;;;;;;;15.77;14.27;;;20.30;99.90;;;;;;5104084;28;20238;-72
2023/08/12 04:39:37;;;;;;;15.77;14.37;;;20.20;99.90;;;;;;5104294;28;21122;-72
2023/08/12 04:42:03;;;;;;;15.30;13.70;;;20.20;99.90;;;;;;5104103;28;20418;-73
2023/08/12 04:44:28;;;;;;;15.13;13.20;;;20.20;99.90;;;;;;5104509;28;20176;-72
2023/08/12 04:46:54;;;;;;;15.60;14.17;;;20.20;99.90;;;;;;5105213;28;20568;-72
2023/08/12 04:49:21;;;;;;;17.10;15.30;;;20.30;99.90;;;;;;5105816;28;20221;-72
2023/08/12 04:51:46;;;;;;;15.77;14.13;;;20.20;99.90;;;;;;5105945;28;20176;-72
2023/08/12 04:54:12;;;;;;;16.00;14.30;;;20.30;99.90;;;;;;5103993;28;20424;-72
2023/08/12 04:56:37;;;;;;;16.77;15.17;;;20.30;99.90;;;;;;5106524;28;20243;-71
2023/08/12 04:59:03;;;;;;;15.50;14.10;;;20.40;99.90;;;;;;5104975;28;20213;-73
2023/08/12 05:01:29;;;;;;;21.83;15.20;;;20.30;99.90;;;;;;5103949;28;20191;-72
2023/08/12 05:03:55;;;;;;;16.13;14.43;;;20.30;99.90;;;;;;5102834;28;20475;-72
2023/08/12 05:06:20;;;;;;;16.13;14.33;;;20.30;99.90;;;;;;5103350;28;20204;-72
2023/08/12 05:08:46;;;;;;;19.50;14.50;;;20.30;99.90;;;;;;5101691;28;20212;-73
2023/08/12 05:11:12;;;;;;;16.73;15.20;;;20.30;99.90;;;;;;5103412;28;20183;-72
2023/08/12 05:13:37;;;;;;;16.63;14.77;;;20.30;99.90;;;;;;5102605;28;20183;-72
2023/08/12 05:16:03;;;;;;;15.47;13.90;;;20.40;99.90;;;;;;5102271;28;20187;-72
2023/08/12 05:18:29;;;;;;;15.40;13.90;;;20.40;99.90;;;;;;5103247;28;20671;-72
2023/08/12 05:20:55;;;;;;;15.70;14.13;;;20.50;99.90;;;;;;5102622;27;20230;-72
2023/08/12 05:23:21;;;;;;;14.53;13.23;;;20.40;99.90;;;;;;5103326;28;20172;-73
2023/08/12 05:25:47;;;;;;;16.00;14.40;;;20.40;99.90;;;;;;5101278;28;20969;-72
2023/08/12 05:28:13;;;;;;;15.87;14.47;;;20.40;99.90;;;;;;5103263;28;20414;-72
2023/08/12 05:30:38;;;;;;;14.50;13.20;;;20.40;99.90;;;;;;5102797;28;20267;-73
2023/08/12 05:33:05;;;;;;;14.77;13.37;;;20.40;99.90;;;;;;5102491;28;20168;-73
2023/08/12 05:35:34;;;;;;;14.57;13.27;;;20.40;99.90;;;;;;5102171;28;20187;-73
2023/08/12 05:38:00;;;;;;;12.70;11.50;;;20.40;99.90;;;;;;5102176;28;20507;-73
2023/08/12 05:40:25;;;;;;;13.47;12.23;;;20.50;99.90;;;;;;5102963;28;20994;-73
2023/08/12 05:42:51;;;;;;;12.20;11.00;;;20.50;99.90;;;;;;5101919;28;20186;-72
2023/08/12 05:45:16;;;;;;;12.60;11.10;;;20.40;99.90;;;;;;5101863;28;20203;-72
2023/08/12 05:47:42;;;;;;;11.97;10.40;;;20.40;99.90;;;;;;5102722;28;20194;-73
2023/08/12 05:50:08;;;;;;;11.60;10.50;;;20.50;99.90;;;;;;5100640;28;20191;-73
2023/08/12 05:52:34;;;;;;;11.40;10.40;;;20.40;99.90;;;;;;5101277;28;20178;-72
2023/08/12 05:55:00;;;;;;;12.43;10.07;;;20.40;99.90;;;;;;5100970;28;20421;-72
2023/08/12 05:57:25;;;;;;;11.37;9.37;;;20.40;99.90;;;;;;5101434;28;20186;-73
2023/08/12 05:59:51;;;;;;;10.10;9.10;;;20.40;99.90;;;;;;5101191;28;20176;-73
2023/08/12 06:02:17;;;;;;;8.63;7.83;;;20.40;99.90;;;;;;5094323;28;20195;-72
2023/08/12 06:04:42;;;;;;;9.60;8.70;;;20.40;99.90;;;;;;5091705;28;20212;-72
2023/08/12 06:07:08;;;;;;;9.70;8.70;;;20.40;99.90;;;;;;5091433;28;20179;-72
2023/08/12 06:09:34;;;;;;;8.93;8.03;;;20.40;99.90;;;;;;5085742;28;20621;-73
2023/08/12 06:11:59;;;;;;;10.63;8.33;;;20.50;99.90;;;;;;5086606;28;20179;-72
2023/08/12 06:14:25;;;;;;;11.17;8.50;;;20.50;99.90;;;;;;5088034;28;20888;-72
2023/08/12 06:16:51;;;;;;;9.53;8.67;;;20.50;99.90;;;;;;5096942;28;20188;-72
2023/08/12 06:19:17;;;;;;;9.03;8.10;;;20.50;99.90;;;;;;5101028;28;20179;-72
2023/08/12 06:21:42;;;;;;;10.73;7.77;;;20.50;99.90;;;;;;5083832;28;20229;-72
2023/08/12 06:24:08;;;;;;;9.63;8.23;;;20.60;99.90;;;;;;5099415;28;21273;-73
2023/08/12 06:26:34;;;;;;;11.97;8.20;;;20.60;99.90;;;;;;5100696;28;20257;-73
2023/08/12 06:28:59;;;;;;;7.13;6.43;;;20.70;99.90;;;;;;5098275;28;20192;-73
2023/08/12 06:31:25;;;;;;;7.73;7.03;;;20.60;99.90;;;;;;5102185;28;20644;-72
2023/08/12 06:33:50;;;;;;;8.60;7.03;;;20.70;99.90;;;;;;5102733;28;20172;-73
2023/08/12 06:36:16;;;;;;;7.93;7.13;;;20.70;99.90;;;;;;5082384;28;20275;-73
2023/08/12 06:38:42;;;;;;;7.50;6.80;;;20.70;99.90;;;;;;5104402;28;20172;-73
2023/08/12 06:41:08;;;;;;;9.97;7.70;;;20.70;99.90;;;;;;5101184;28;20167;-73
2023/08/12 06:43:33;;;;;;;7.90;6.87;;;20.70;99.90;;;;;;5081810;28;20188;-73
2023/08/12 06:45:59;;;;;;;8.17;7.30;;;20.70;99.90;;;;;;5100167;28;20654;-72
2023/08/12 06:48:24;;;;;;;7.50;6.80;;;20.70;99.90;;;;;;5101565;28;20176;-72
2023/08/12 06:50:56;;;;;;;6.70;6.20;;;20.70;99.90;;;;;;5101743;28;20176;-72
2023/08/12 06:53:22;;;;;;;9.13;6.27;;;20.70;99.90;;;;;;5101467;28;20183;-72
2023/08/12 06:55:48;;;;;;;7.20;6.33;;;20.70;99.90;;;;;;5099119;28;20498;-72
2023/08/12 06:58:17;;;;;;;7.07;6.23;;;20.60;99.90;;;;;;5100175;28;20184;-72
2023/08/12 07:00:43;;;;;;;10.73;6.30;;;20.60;99.90;;;;;;5083948;28;20184;-73
2023/08/12 07:03:09;;;;;;;8.33;6.60;;;20.50;99.90;;;;;;5088764;28;20424;-73
2023/08/12 07:05:34;;;;;;;6.73;5.50;;;20.50;99.90;;;;;;5081075;28;20218;-72
2023/08/12 07:08:00;;;;;;;7.10;6.40;;;20.50;99.90;;;;;;5083085;28;20453;-73
2023/08/12 07:10:26;;;;;;;6.93;6.17;;;20.50;99.90;;;;;;5101401;28;20187;-72
2023/08/12 07:12:51;;;;;;;7.17;6.07;;;20.50;99.90;;;;;;5083112;28;20190;-72
2023/08/12 07:15:17;;;;;;;7.00;6.30;;;20.50;99.90;;;;;;5095153;28;20184;-72
2023/08/12 07:17:43;;;;;;;7.67;5.87;;;20.50;99.90;;;;;;5100991;28;20222;-73
2023/08/12 07:20:08;;;;;;;6.63;5.93;;;20.40;99.90;;;;;;5100248;28;20171;-72
2023/08/12 07:22:34;;;;;;;6.57;5.97;;;20.40;99.90;;;;;;5100051;28;20192;-72
2023/08/12 07:25:00;;;;;;;7.10;5.50;;;20.40;99.90;;;;;;5080915;28;20219;-74
2023/08/12 07:27:27;;;;;;;5.70;5.07;;;20.40;99.90;;;;;;5100440;28;20176;-72
2023/08/12 07:29:53;;;;;;;5.77;5.27;;;20.40;99.90;;;;;;5101159;28;20194;-72
2023/08/12 07:32:19;;;;;;;5.40;4.93;;;20.40;99.90;;;;;;5072975;28;20441;-73
2023/08/12 07:34:45;;;;;;;5.30;4.90;;;20.40;99.90;;;;;;5098935;28;21005;-72
2023/08/12 07:37:11;;;;;;;6.30;5.30;;;20.40;99.90;;;;;;5094263;28;20514;-72
2023/08/12 07:39:36;;;;;;;5.10;4.70;;;20.40;99.90;;;;;;5094407;28;20440;-72
2023/08/12 07:42:03;;;;;;;5.20;4.80;;;20.50;99.90;;;;;;5100690;28;20183;-72
2023/08/12 07:44:29;;;;;;;6.50;4.50;;;20.40;99.90;;;;;;5100148;28;20225;-72
2023/08/12 07:46:54;;;;;;;4.80;4.40;;;20.50;99.90;;;;;;5100898;28;20413;-72
2023/08/12 07:49:21;;;;;;;5.93;5.33;;;20.50;99.90;;;;;;5100449;28;20463;-71
2023/08/12 07:51:46;;;;;;;5.57;5.07;;;20.60;99.90;;;;;;5100712;28;20207;-72
2023/08/12 07:54:12;;;;;;;5.83;5.00;;;20.60;99.90;;;;;;5091478;28;20525;-72
2023/08/12 07:56:38;;;;;;;4.97;4.47;;;20.70;99.90;;;;;;5096531;28;20188;-73
2023/08/12 07:59:04;;;;;;;4.97;4.40;;;20.70;99.90;;;;;;5093293;28;20666;-73
2023/08/12 08:01:29;;;;;;;4.97;4.53;;;20.70;99.90;;;;;;5088692;28;20183;-71
2023/08/12 08:03:55;;;;;;;4.37;4.03;;;20.70;99.90;;;;;;5091537;28;20180;-73
2023/08/12 08:06:23;;;;;;;5.10;4.60;;;20.80;99.90;;;;;;5098354;28;20215;-72
2023/08/12 08:08:49;;;;;;;4.83;4.27;;;20.80;99.90;;;;;;5101116;28;20183;-72
2023/08/12 08:11:15;;;;;;;4.40;4.00;;;20.80;99.90;;;;;;5100333;28;20481;-72
2023/08/12 08:13:40;;;;;;;4.60;4.30;;;20.90;99.90;;;;;;5101803;28;20195;-72
2023/08/12 08:16:06;;;;;;;4.80;4.40;;;20.90;99.90;;;;;;5095426;28;20292;-72
2023/08/12 08:18:32;;;;;;;4.60;4.30;;;20.90;99.90;;;;;;5097817;28;20188;-72
2023/08/12 08:20:57;;;;;;;4.70;4.30;;;20.90;99.90;;;;;;5099789;28;20179;-72
2023/08/12 08:23:23;;;;;;;5.13;4.63;;;21.00;99.90;;;;;;5098775;28;20195;-72
2023/08/12 08:25:49;;;;;;;5.40;4.90;;;21.00;99.90;;;;;;5095340;28;20321;-73
2023/08/12 08:28:14;;;;;;;5.40;4.90;;;21.10;99.90;;;;;;5095528;28;21043;-72
2023/08/12 08:30:40;;;;;;;6.20;5.47;;;21.10;99.90;;;;;;5094630;28;21413;-72
2023/08/12 08:33:06;;;;;;;6.90;5.33;;;21.10;99.90;;;;;;5102714;28;20179;-73
2023/08/12 08:35:31;;;;;;;7.80;5.33;;;21.10;99.90;;;;;;5100892;28;20176;-72
2023/08/12 08:37:57;;;;;;;5.37;4.90;;;21.10;99.90;;;;;;5103695;28;20259;-73
2023/08/12 08:40:23;;;;;;;6.50;4.90;;;21.00;99.90;;;;;;5102643;28;20248;-72
2023/08/12 08:42:53;;;;;;;5.80;5.40;;;21.00;99.90;;;;;;5103176;28;20180;-72
2023/08/12 08:45:21;;;;;;;6.07;5.57;;;21.00;99.90;;;;;;5102228;28;20488;-72
2023/08/12 08:47:47;;;;;;;6.40;5.90;;;21.00;99.90;;;;;;5095922;28;20437;-71
2023/08/12 08:50:14;;;;;;;6.47;5.93;;;21.00;99.90;;;;;;5100901;28;20444;-74
2023/08/12 08:52:41;;;;;;;7.70;7.00;;;20.90;99.90;;;;;;5102245;28;21267;-73
2023/08/12 08:55:07;;;;;;;7.60;6.90;;;21.00;99.90;;;;;;5102453;28;20478;-72
2023/08/12 08:57:33;;;;;;;6.77;6.27;;;21.00;99.90;;;;;;5099933;28;20441;-72
2023/08/12 08:59:59;;;;;;;7.20;6.53;;;21.00;99.90;;;;;;5096937;28;20423;-72
2023/08/12 09:02:26;;;;;;;7.50;6.77;;;21.00;99.90;;;;;;5099021;28;20444;-72
2023/08/12 09:04:53;;;;;;;6.90;6.40;;;21.00;99.90;;;;;;5098902;28;20219;-74
2023/08/12 09:07:20;;;;;;;7.70;7.00;;;21.00;99.90;;;;;;5101774;28;20421;-73
2023/08/12 09:09:48;;;;;;;7.13;6.43;;;21.00;99.90;;;;;;5100404;28;20486;-73
2023/08/12 09:12:15;;;;;;;7.97;7.27;;;21.00;99.90;;;;;;5101285;28;20982;-73
2023/08/12 09:14:43;;;;;;;7.77;6.73;;;21.00;99.90;;;;;;5100337;28;20457;-74
2023/08/12 09:17:09;;;;;;;7.90;7.20;;;21.00;99.90;;;;;;5098460;28;20438;-72
2023/08/12 09:19:35;;;;;;;7.57;6.97;;;21.10;99.90;;;;;;5095539;28;20440;-72
2023/08/12 09:22:03;;;;;;;7.00;6.40;;;21.20;99.90;;;;;;5097398;28;20429;-71
2023/08/12 09:24:29;;;;;;;7.33;6.60;;;21.20;99.90;;;;;;5099852;28;20178;-72
2023/08/12 09:26:55;;;;;;;8.33;7.13;;;21.20;99.90;;;;;;5100642;28;20433;-71
2023/08/12 09:29:31;;;;;;;6.90;6.40;;;21.10;99.90;;;;;;5097630;28;20426;-71
2023/08/12 09:32:19;;;;;;;6.30;5.90;;;21.20;99.90;;;;;;5102016;28;21136;-72
2023/08/12 09:34:47;;;;;;;6.77;6.27;;;21.10;99.90;;;;;;5094566;28;20425;-70
2023/08/12 09:37:13;;;;;;;5.37;4.97;;;21.10;99.90;;;;;;5102056;28;20433;-70
2023/08/12 09:39:40;;;;;;;7.87;5.20;;;21.10;99.90;;;;;;5101606;28;20578;-70
2023/08/12 09:42:06;;;;;;;6.17;5.67;;;21.10;99.90;;;;;;5102206;28;20421;-72
2023/08/12 09:44:35;;;;;;;5.80;5.30;;;21.10;99.90;;;;;;5101155;28;20416;-71
2023/08/12 09:47:01;;;;;;;5.07;4.67;;;21.20;99.90;;;;;;5101932;28;20271;-71
2023/08/12 09:49:27;;;;;;;5.67;5.17;;;21.20;99.90;;;;;;5093786;28;20429;-69
2023/08/12 09:51:53;;;;;;;5.13;4.63;;;21.20;99.90;;;;;;5102741;28;20194;-71
2023/08/12 09:54:19;;;;;;;4.90;4.50;;;21.30;99.90;;;;;;5100237;28;20437;-70
2023/08/12 09:56:48;;;;;;;4.60;4.30;;;21.20;99.90;;;;;;5096624;28;20195;-70
2023/08/12 09:59:20;;;;;;;4.10;3.80;;;21.30;99.90;;;;;;5101854;28;20196;-71
2023/08/12 10:01:46;;;;;;;4.00;3.70;;;21.30;99.90;;;;;;5097153;28;20433;-70
2023/08/12 10:04:14;;;;;;;4.67;4.27;;;21.40;99.90;;;;;;5097177;28;20440;-72
2023/08/12 10:06:41;;;;;;;3.63;3.33;;;21.40;99.90;;;;;;5069087;28;20878;-71
2023/08/12 10:09:11;;;;;;;3.50;3.20;;;21.50;99.90;;;;;;5092869;27;20473;-70
2023/08/12 10:11:37;;;;;;;4.17;3.10;;;21.50;99.90;;;;;;5097258;28;20449;-71
2023/08/12 10:14:08;;;;;;;3.20;2.90;;;21.50;99.90;;;;;;5080561;28;21035;-69
2023/08/12 10:16:35;;;;;;;2.67;2.47;;;21.50;99.90;;;;;;5110851;27;20969;-70
2023/08/12 10:19:02;;;;;;;3.07;2.77;;;21.50;99.90;;;;;;5093207;28;20848;-70
2023/08/12 10:21:28;;;;;;;3.07;2.83;;;21.50;99.90;;;;;;5101333;27;20442;-71
2023/08/12 10:23:56;;;;;;;2.70;2.50;;;21.50;99.90;;;;;;5099472;28;20560;-71
2023/08/12 10:26:22;;;;;;;4.13;2.90;;;21.50;99.90;;;;;;5077935;28;20481;-70
2023/08/12 10:28:48;;;;;;;2.63;2.43;;;21.50;99.90;;;;;;5098223;28;20875;-72
2023/08/12 10:31:14;;;;;;;2.80;2.60;;;21.60;99.90;;;;;;5089003;28;20460;-72
2023/08/12 10:33:41;;;;;;;3.63;2.50;;;21.60;99.90;;;;;;5101269;27;20441;-71
2023/08/12 10:36:07;;;;;;;2.30;2.10;;;21.70;99.90;;;;;;5099611;27;20227;-71
2023/08/12 10:38:34;;;;;;;4.23;2.27;;;21.80;99.90;;;;;;5099511;28;21195;-71
2023/08/12 10:41:23;;;;;;;2.47;2.27;;;21.80;99.90;;;;;;5092757;27;20500;-70
2023/08/12 10:44:01;;;;;;;2.43;2.23;;;21.80;99.90;;;;;;5095666;28;20799;-71
2023/08/12 10:46:35;;;;;;;2.83;2.30;;;21.90;99.90;;;;;;5101643;28;20722;-70
2023/08/12 10:49:04;;;;;;;2.83;2.40;;;21.90;99.90;;;;;;5101140;27;20480;-70
2023/08/12 10:51:52;;;;;;;2.73;2.53;;;22.10;99.90;;;;;;5102033;28;20449;-70
2023/08/12 10:54:20;;;;;;;3.23;2.20;;;22.20;99.90;;;;;;5103970;27;20461;-72
2023/08/12 10:57:14;;;;;;;2.00;1.80;;;22.30;99.90;;;;;;5083962;28;20461;-70
2023/08/12 10:59:46;;;;;;;3.10;2.30;;;22.40;99.90;;;;;;5093174;27;20466;-71
2023/08/12 11:02:29;;;;;;;3.00;2.00;;;22.60;99.90;;;;;;5084554;28;20452;-70
2023/08/12 11:04:55;;;;;;;2.93;1.90;;;22.60;99.90;;;;;;5099185;27;20465;-71
2023/08/12 11:07:43;;;;;;;2.97;2.27;;;22.60;99.90;;;;;;5102097;28;21006;-71
2023/08/12 11:10:18;;;;;;;2.33;1.83;;;22.60;99.90;;;;;;5098772;28;21145;-71
2023/08/12 11:12:56;;;;;;;2.57;1.80;;;22.50;99.90;;;;;;5103403;28;20441;-71
2023/08/12 11:15:34;;;;;;;2.40;1.63;;;22.50;99.90;;;;;;5096723;28;20448;-71
2023/08/12 11:18:03;;;;;;;2.20;1.60;;;22.30;99.90;;;;;;5078295;28;20501;-70
2023/08/12 11:20:29;;;;;;;3.87;2.00;;;22.30;99.90;;;;;;5103939;28;20456;-70
2023/08/12 11:22:56;;;;;;;2.00;1.90;;;22.20;99.90;;;;;;5102506;28;20449;-71
2023/08/12 11:25:21;;;;;;;1.83;1.70;;;22.10;99.90;;;;;;5095430;28;20269;-70
2023/08/12 11:27:48;;;;;;;7.87;2.67;;;22.10;99.90;;;;;;5078600;28;20536;-71
2023/08/12 11:30:20;;;;;;;2.63;2.10;;;22.00;99.90;;;;;;5107915;28;20245;-71
2023/08/12 11:32:47;;;;;;;5.70;2.10;;;21.90;99.90;;;;;;5108800;28;20512;-70
2023/08/12 11:35:15;;;;;;;2.30;2.10;;;21.90;99.90;;;;;;5100385;28;21030;-71
2023/08/12 11:37:42;;;;;;;1.67;1.50;;;21.80;99.90;;;;;;5108658;28;20453;-72
2023/08/12 11:40:10;;;;;;;1.93;1.10;;;21.80;99.90;;;;;;5083260;28;20533;-71
2023/08/12 11:42:40;;;;;;;1.30;1.20;;;21.80;99.90;;;;;;5105807;28;20481;-71
2023/08/12 11:45:07;;;;;;;1.67;1.23;;;21.80;99.90;;;;;;5107634;28;20483;-72
2023/08/12 11:47:34;;;;;;;1.70;1.03;;;21.80;99.90;;;;;;5099232;28;20453;-71
2023/08/12 11:50:06;;;;;;;1.20;0.97;;;21.80;99.90;;;;;;5098719;28;20814;-70
2023/08/12 11:52:32;;;;;;;1.23;0.90;;;21.90;99.90;;;;;;5096707;28;20442;-70
2023/08/12 11:54:59;;;;;;;0.97;0.87;;;21.90;99.90;;;;;;5097941;28;20457;-72
2023/08/12 11:57:26;;;;;;;1.37;1.10;;;21.90;99.90;;;;;;5085127;28;20421;-71
2023/08/12 11:59:53;;;;;;;1.60;1.10;;;21.90;99.90;;;;;;5083591;28;21128;-70
2023/08/12 12:02:19;;;;;;;1.20;1.10;;;21.90;99.90;;;;;;5099714;27;20457;-69
2023/08/12 12:04:44;;;;;;;0.93;0.90;;;21.90;99.90;;;;;;5098221;27;22867;-71
2023/08/12 12:07:24;;;;;;;1.57;1.30;;;21.90;99.90;;;;;;5100683;28;20443;-70
2023/08/12 12:09:54;;;;;;;1.53;1.13;;;21.90;99.90;;;;;;5099294;27;20322;-70
2023/08/12 12:12:26;;;;;;;1.43;1.20;;;21.90;99.90;;;;;;5083672;28;20553;-71
2023/08/12 12:14:55;;;;;;;1.73;1.10;;;21.80;99.90;;;;;;5097532;28;20488;-70
2023/08/12 12:17:22;;;;;;;1.30;1.10;;;21.80;99.90;;;;;;5101918;28;20448;-70
2023/08/12 12:19:56;;;;;;;1.20;1.10;;;21.80;99.90;;;;;;5098240;27;20963;-69
2023/08/12 12:22:30;;;;;;;1.30;1.20;;;21.80;99.90;;;;;;5097436;27;20473;-70
2023/08/12 12:24:59;;;;;;;1.10;1.00;;;21.80;99.90;;;;;;5094312;27;20485;-70
2023/08/12 12:27:25;;;;;;;1.60;1.50;;;22.00;99.90;;;;;;5083222;28;20523;-70
2023/08/12 12:29:50;;;;;;;1.70;1.60;;;22.20;99.90;;;;;;5108576;27;20453;-71
2023/08/12 12:32:20;;;;;;;5.10;1.50;;;22.30;99.90;;;;;;5099518;28;20565;-71
2023/08/12 12:34:46;;;;;;;1.30;1.20;;;22.40;99.90;;;;;;5101475;28;20183;-71
2023/08/12 12:37:13;;;;;;;1.53;1.43;;;22.50;99.90;;;;;;5081490;28;20453;-71